sensor_id;sensor_type;location;lat;lon;timestamp;pressure;altitude;pressure_sealevel;temperature
71564;BMP180;59391;52.504;13.438;2022-08-19T00:01:53;100624.00;;;26.30
71564;BMP180;59391;52.504;13.438;2022-08-19T00:04:28;100630.00;;;26.30
71564;BMP180;59391;52.504;13.438;2022-08-19T00:06:54;100636.00;;;26.40
71564;BMP180;59391;52.504;13.438;2022-08-19T00:09:22;100624.00;;;26.40
71564;BMP180;59391;52.504;13.438;2022-08-19T00:11:49;100618.00;;;26.40
71564;BMP180;59391;52.504;13.438;2022-08-19T00:14:17;100635.00;;;26.40
71564;BMP180;59391;52.504;13.438;2022-08-19T00:16:45;100637.00;;;26.40
71564;BMP180;59391;52.504;13.438;2022-08-19T00:19:12;100645.00;;;26.40
71564;BMP180;59391;52.504;13.438;2022-08-19T00:21:38;100637.00;;;26.40
71564;BMP180;59391;52.504;13.438;2022-08-19T00:24:10;100647.00;;;26.40
71564;BMP180;59391;52.504;13.438;2022-08-19T00:26:38;100629.00;;;26.40
71564;BMP180;59391;52.504;13.438;2022-08-19T00:29:07;100624.00;;;26.50
71564;BMP180;59391;52.504;13.438;2022-08-19T00:31:33;100623.00;;;26.50
71564;BMP180;59391;52.504;13.438;2022-08-19T00:33:59;100621.00;;;26.50
71564;BMP180;59391;52.504;13.438;2022-08-19T00:36:25;100635.00;;;26.50
71564;BMP180;59391;52.504;13.438;2022-08-19T00:38:50;100603.00;;;26.50
71564;BMP180;59391;52.504;13.438;2022-08-19T00:41:21;100618.00;;;26.50
71564;BMP180;59391;52.504;13.438;2022-08-19T00:44:09;100621.00;;;26.40
71564;BMP180;59391;52.504;13.438;2022-08-19T00:46:40;100621.00;;;26.30
71564;BMP180;59391;52.504;13.438;2022-08-19T00:49:21;100608.00;;;26.20
71564;BMP180;59391;52.504;13.438;2022-08-19T00:51:55;100602.00;;;26.00
71564;BMP180;59391;52.504;13.438;2022-08-19T00:54:22;100619.00;;;25.90
71564;BMP180;59391;52.504;13.438;2022-08-19T00:56:49;100621.00;;;25.80
71564;BMP180;59391;52.504;13.438;2022-08-19T00:59:16;100612.00;;;25.70
71564;BMP180;59391;52.504;13.438;2022-08-19T01:01:44;100611.00;;;25.60
71564;BMP180;59391;52.504;13.438;2022-08-19T01:04:11;100613.00;;;25.50
71564;BMP180;59391;52.504;13.438;2022-08-19T01:06:39;100628.00;;;25.50
71564;BMP180;59391;52.504;13.438;2022-08-19T01:09:08;100626.00;;;25.40
71564;BMP180;59391;52.504;13.438;2022-08-19T01:11:40;100629.00;;;25.30
71564;BMP180;59391;52.504;13.438;2022-08-19T01:14:10;100610.00;;;25.30
71564;BMP180;59391;52.504;13.438;2022-08-19T01:16:39;100634.00;;;25.20
71564;BMP180;59391;52.504;13.438;2022-08-19T01:19:24;100645.00;;;25.20
71564;BMP180;59391;52.504;13.438;2022-08-19T01:22:02;100640.00;;;25.10
71564;BMP180;59391;52.504;13.438;2022-08-19T01:24:28;100634.00;;;25.10
71564;BMP180;59391;52.504;13.438;2022-08-19T01:26:57;100638.00;;;25.10
71564;BMP180;59391;52.504;13.438;2022-08-19T01:29:23;100642.00;;;25.10
71564;BMP180;59391;52.504;13.438;2022-08-19T01:31:49;100644.00;;;25.10
71564;BMP180;59391;52.504;13.438;2022-08-19T01:34:19;100643.00;;;25.10
71564;BMP180;59391;52.504;13.438;2022-08-19T01:36:47;100646.00;;;25.00
71564;BMP180;59391;52.504;13.438;2022-08-19T01:39:20;100642.00;;;25.00
71564;BMP180;59391;52.504;13.438;2022-08-19T01:41:47;100645.00;;;25.00
71564;BMP180;59391;52.504;13.438;2022-08-19T01:44:14;100640.00;;;25.00
71564;BMP180;59391;52.504;13.438;2022-08-19T01:46:43;100622.00;;;24.90
71564;BMP180;59391;52.504;13.438;2022-08-19T01:49:09;100638.00;;;24.90
71564;BMP180;59391;52.504;13.438;2022-08-19T01:51:36;100622.00;;;24.80
71564;BMP180;59391;52.504;13.438;2022-08-19T01:54:02;100620.00;;;24.80
71564;BMP180;59391;52.504;13.438;2022-08-19T01:56:28;100609.00;;;24.70
71564;BMP180;59391;52.504;13.438;2022-08-19T01:59:02;100633.00;;;24.70
71564;BMP180;59391;52.504;13.438;2022-08-19T02:01:28;100610.00;;;24.60
71564;BMP180;59391;52.504;13.438;2022-08-19T02:03:58;100586.00;;;24.50
71564;BMP180;59391;52.504;13.438;2022-08-19T02:06:24;100598.00;;;24.50
71564;BMP180;59391;52.504;13.438;2022-08-19T02:08:50;100588.00;;;24.40
71564;BMP180;59391;52.504;13.438;2022-08-19T02:11:28;100589.00;;;24.30
71564;BMP180;59391;52.504;13.438;2022-08-19T02:13:57;100583.00;;;24.20
71564;BMP180;59391;52.504;13.438;2022-08-19T02:16:24;100546.00;;;24.20
71564;BMP180;59391;52.504;13.438;2022-08-19T02:18:50;100544.00;;;24.20
71564;BMP180;59391;52.504;13.438;2022-08-19T02:21:18;100524.00;;;24.10
71564;BMP180;59391;52.504;13.438;2022-08-19T02:23:46;100504.00;;;24.00
71564;BMP180;59391;52.504;13.438;2022-08-19T02:26:12;100521.00;;;24.00
71564;BMP180;59391;52.504;13.438;2022-08-19T02:28:40;100529.00;;;24.00
71564;BMP180;59391;52.504;13.438;2022-08-19T02:31:17;100520.00;;;23.90
71564;BMP180;59391;52.504;13.438;2022-08-19T02:33:44;100527.00;;;23.90
71564;BMP180;59391;52.504;13.438;2022-08-19T02:36:12;100525.00;;;23.90
71564;BMP180;59391;52.504;13.438;2022-08-19T02:38:39;100536.00;;;23.90
71564;BMP180;59391;52.504;13.438;2022-08-19T02:41:28;100532.00;;;23.80
71564;BMP180;59391;52.504;13.438;2022-08-19T02:43:57;100514.00;;;23.90
71564;BMP180;59391;52.504;13.438;2022-08-19T02:46:29;100536.00;;;23.80
71564;BMP180;59391;52.504;13.438;2022-08-19T02:49:04;100546.00;;;23.90
71564;BMP180;59391;52.504;13.438;2022-08-19T02:51:38;100550.00;;;23.80
71564;BMP180;59391;52.504;13.438;2022-08-19T02:54:07;100546.00;;;23.90
71564;BMP180;59391;52.504;13.438;2022-08-19T02:56:35;100543.00;;;24.00
71564;BMP180;59391;52.504;13.438;2022-08-19T02:59:02;100514.00;;;23.90
71564;BMP180;59391;52.504;13.438;2022-08-19T03:01:33;100545.00;;;24.00
71564;BMP180;59391;52.504;13.438;2022-08-19T03:04:03;100555.00;;;24.00
71564;BMP180;59391;52.504;13.438;2022-08-19T03:06:30;100559.00;;;24.00
71564;BMP180;59391;52.504;13.438;2022-08-19T03:08:58;100550.00;;;24.00
71564;BMP180;59391;52.504;13.438;2022-08-19T03:11:31;100534.00;;;24.00
71564;BMP180;59391;52.504;13.438;2022-08-19T03:13:58;100531.00;;;24.00
71564;BMP180;59391;52.504;13.438;2022-08-19T03:16:29;100543.00;;;23.90
71564;BMP180;59391;52.504;13.438;2022-08-19T03:18:57;100545.00;;;24.00
71564;BMP180;59391;52.504;13.438;2022-08-19T03:21:28;100518.00;;;24.00
71564;BMP180;59391;52.504;13.438;2022-08-19T03:23:56;100528.00;;;23.90
71564;BMP180;59391;52.504;13.438;2022-08-19T03:26:23;100511.00;;;24.00
71564;BMP180;59391;52.504;13.438;2022-08-19T03:28:48;100513.00;;;24.00
71564;BMP180;59391;52.504;13.438;2022-08-19T03:31:19;100529.00;;;24.00
71564;BMP180;59391;52.504;13.438;2022-08-19T03:33:46;100524.00;;;24.00
71564;BMP180;59391;52.504;13.438;2022-08-19T03:36:22;100525.00;;;23.90
71564;BMP180;59391;52.504;13.438;2022-08-19T03:38:53;100521.00;;;24.00
71564;BMP180;59391;52.504;13.438;2022-08-19T03:41:27;100519.00;;;24.00
71564;BMP180;59391;52.504;13.438;2022-08-19T03:43:54;100518.00;;;23.90
71564;BMP180;59391;52.504;13.438;2022-08-19T03:46:24;100527.00;;;24.00
71564;BMP180;59391;52.504;13.438;2022-08-19T03:48:53;100522.00;;;24.00
71564;BMP180;59391;52.504;13.438;2022-08-19T03:51:28;100534.00;;;24.00
71564;BMP180;59391;52.504;13.438;2022-08-19T03:53:58;100512.00;;;24.00
71564;BMP180;59391;52.504;13.438;2022-08-19T03:56:27;100537.00;;;24.10
71564;BMP180;59391;52.504;13.438;2022-08-19T03:58:55;100494.00;;;24.10
71564;BMP180;59391;52.504;13.438;2022-08-19T04:01:25;100522.00;;;24.00
71564;BMP180;59391;52.504;13.438;2022-08-19T04:03:59;100520.00;;;24.10
71564;BMP180;59391;52.504;13.438;2022-08-19T04:06:45;100517.00;;;24.10
71564;BMP180;59391;52.504;13.438;2022-08-19T04:09:28;100531.00;;;23.90
71564;BMP180;59391;52.504;13.438;2022-08-19T04:12:00;100457.00;;;24.10
71564;BMP180;59391;52.504;13.438;2022-08-19T04:14:29;100526.00;;;24.20
71564;BMP180;59391;52.504;13.438;2022-08-19T04:17:03;100531.00;;;24.10
71564;BMP180;59391;52.504;13.438;2022-08-19T04:19:31;100539.00;;;24.20
71564;BMP180;59391;52.504;13.438;2022-08-19T04:22:00;100539.00;;;24.20
71564;BMP180;59391;52.504;13.438;2022-08-19T04:24:30;100547.00;;;24.20
71564;BMP180;59391;52.504;13.438;2022-08-19T04:27:02;100480.00;;;24.30
71564;BMP180;59391;52.504;13.438;2022-08-19T04:29:28;100549.00;;;24.20
71564;BMP180;59391;52.504;13.438;2022-08-19T04:31:56;100539.00;;;24.30
71564;BMP180;59391;52.504;13.438;2022-08-19T04:34:28;100514.00;;;24.40
71564;BMP180;59391;52.504;13.438;2022-08-19T04:37:10;100499.00;;;24.20
71564;BMP180;59391;52.504;13.438;2022-08-19T04:39:56;100510.00;;;24.40
71564;BMP180;59391;52.504;13.438;2022-08-19T04:42:41;100548.00;;;24.40
71564;BMP180;59391;52.504;13.438;2022-08-19T04:45:21;100552.00;;;24.40
71564;BMP180;59391;52.504;13.438;2022-08-19T04:48:03;100500.00;;;24.50
71564;BMP180;59391;52.504;13.438;2022-08-19T04:53:51;100505.00;;;24.50
71564;BMP180;59391;52.504;13.438;2022-08-19T05:19:02;100552.00;;;24.50
71564;BMP180;59391;52.504;13.438;2022-08-19T05:22:09;100491.00;;;24.70
71564;BMP180;59391;52.504;13.438;2022-08-19T05:24:54;100473.00;;;24.80
71564;BMP180;59391;52.504;13.438;2022-08-19T05:27:20;100521.00;;;24.80
71564;BMP180;59391;52.504;13.438;2022-08-19T05:29:45;100470.00;;;24.80
71564;BMP180;59391;52.504;13.438;2022-08-19T05:32:14;100467.00;;;24.80
71564;BMP180;59391;52.504;13.438;2022-08-19T05:34:43;100448.00;;;24.90
71564;BMP180;59391;52.504;13.438;2022-08-19T05:37:33;100490.00;;;25.00
71564;BMP180;59391;52.504;13.438;2022-08-19T05:40:13;100468.00;;;25.00
71564;BMP180;59391;52.504;13.438;2022-08-19T05:42:39;100456.00;;;25.10
71564;BMP180;59391;52.504;13.438;2022-08-19T05:45:20;100525.00;;;25.10
71564;BMP180;59391;52.504;13.438;2022-08-19T05:47:47;100466.00;;;25.00
71564;BMP180;59391;52.504;13.438;2022-08-19T05:50:16;100537.00;;;25.30
71564;BMP180;59391;52.504;13.438;2022-08-19T05:52:42;100527.00;;;25.30
71564;BMP180;59391;52.504;13.438;2022-08-19T05:55:18;100479.00;;;25.30
71564;BMP180;59391;52.504;13.438;2022-08-19T05:57:53;100502.00;;;25.40
71564;BMP180;59391;52.504;13.438;2022-08-19T06:00:18;100510.00;;;25.40
71564;BMP180;59391;52.504;13.438;2022-08-19T06:02:44;100458.00;;;25.50
71564;BMP180;59391;52.504;13.438;2022-08-19T06:05:19;100527.00;;;25.40
71564;BMP180;59391;52.504;13.438;2022-08-19T06:07:47;100498.00;;;25.60
71564;BMP180;59391;52.504;13.438;2022-08-19T06:10:13;100512.00;;;25.60
71564;BMP180;59391;52.504;13.438;2022-08-19T06:12:41;100525.00;;;25.60
71564;BMP180;59391;52.504;13.438;2022-08-19T06:15:12;100545.00;;;25.70
71564;BMP180;59391;52.504;13.438;2022-08-19T06:17:39;100526.00;;;25.70
71564;BMP180;59391;52.504;13.438;2022-08-19T06:20:22;100545.00;;;25.80
71564;BMP180;59391;52.504;13.438;2022-08-19T06:22:59;100529.00;;;25.70
71564;BMP180;59391;52.504;13.438;2022-08-19T06:25:27;100541.00;;;25.90
71564;BMP180;59391;52.504;13.438;2022-08-19T06:27:53;100525.00;;;26.00
71564;BMP180;59391;52.504;13.438;2022-08-19T06:30:21;100479.00;;;26.00
71564;BMP180;59391;52.504;13.438;2022-08-19T06:32:47;100471.00;;;26.00
71564;BMP180;59391;52.504;13.438;2022-08-19T06:35:18;100493.00;;;26.20
71564;BMP180;59391;52.504;13.438;2022-08-19T06:37:43;100487.00;;;26.20
71564;BMP180;59391;52.504;13.438;2022-08-19T06:40:10;100468.00;;;26.30
71564;BMP180;59391;52.504;13.438;2022-08-19T06:42:37;100518.00;;;26.30
71564;BMP180;59391;52.504;13.438;2022-08-19T06:45:05;100502.00;;;26.40
71564;BMP180;59391;52.504;13.438;2022-08-19T06:47:34;100564.00;;;26.40
71564;BMP180;59391;52.504;13.438;2022-08-19T06:50:00;100562.00;;;26.50
71564;BMP180;59391;52.504;13.438;2022-08-19T06:52:32;100536.00;;;26.50
71564;BMP180;59391;52.504;13.438;2022-08-19T06:55:02;100562.00;;;26.50
71564;BMP180;59391;52.504;13.438;2022-08-19T06:57:28;100551.00;;;26.50
71564;BMP180;59391;52.504;13.438;2022-08-19T07:00:01;100565.00;;;26.60
71564;BMP180;59391;52.504;13.438;2022-08-19T07:02:26;100564.00;;;26.60
71564;BMP180;59391;52.504;13.438;2022-08-19T07:04:52;100583.00;;;26.70
71564;BMP180;59391;52.504;13.438;2022-08-19T07:07:20;100586.00;;;26.70
71564;BMP180;59391;52.504;13.438;2022-08-19T07:09:46;100586.00;;;26.70
71564;BMP180;59391;52.504;13.438;2022-08-19T07:12:13;100597.00;;;26.70
71564;BMP180;59391;52.504;13.438;2022-08-19T07:14:42;100580.00;;;26.80
71564;BMP180;59391;52.504;13.438;2022-08-19T07:17:12;100568.00;;;26.80
71564;BMP180;59391;52.504;13.438;2022-08-19T07:19:39;100565.00;;;26.90
71564;BMP180;59391;52.504;13.438;2022-08-19T07:22:07;100572.00;;;27.00
71564;BMP180;59391;52.504;13.438;2022-08-19T07:24:35;100561.00;;;27.10
71564;BMP180;59391;52.504;13.438;2022-08-19T07:27:04;100575.00;;;27.10
71564;BMP180;59391;52.504;13.438;2022-08-19T07:29:33;100576.00;;;27.20
71564;BMP180;59391;52.504;13.438;2022-08-19T07:32:01;100582.00;;;27.20
71564;BMP180;59391;52.504;13.438;2022-08-19T07:34:29;100573.00;;;27.30
71564;BMP180;59391;52.504;13.438;2022-08-19T07:36:56;100594.00;;;27.20
71564;BMP180;59391;52.504;13.438;2022-08-19T07:39:32;100583.00;;;27.20
71564;BMP180;59391;52.504;13.438;2022-08-19T07:42:01;100604.00;;;27.30
71564;BMP180;59391;52.504;13.438;2022-08-19T07:44:28;100609.00;;;27.30
71564;BMP180;59391;52.504;13.438;2022-08-19T07:46:56;100603.00;;;27.30
71564;BMP180;59391;52.504;13.438;2022-08-19T07:49:23;100611.00;;;27.40
71564;BMP180;59391;52.504;13.438;2022-08-19T07:51:54;100599.00;;;27.40
71564;BMP180;59391;52.504;13.438;2022-08-19T07:54:23;100606.00;;;27.40
71564;BMP180;59391;52.504;13.438;2022-08-19T07:56:50;100604.00;;;27.40
71564;BMP180;59391;52.504;13.438;2022-08-19T07:59:18;100592.00;;;27.40
71564;BMP180;59391;52.504;13.438;2022-08-19T08:01:45;100613.00;;;27.40
71564;BMP180;59391;52.504;13.438;2022-08-19T08:04:11;100615.00;;;27.40
71564;BMP180;59391;52.504;13.438;2022-08-19T08:06:55;100617.00;;;27.40
71564;BMP180;59391;52.504;13.438;2022-08-19T08:09:42;100623.00;;;27.40
71564;BMP180;59391;52.504;13.438;2022-08-19T08:12:15;100624.00;;;27.40
71564;BMP180;59391;52.504;13.438;2022-08-19T08:14:54;100633.00;;;27.40
71564;BMP180;59391;52.504;13.438;2022-08-19T08:17:27;100642.00;;;27.40
71564;BMP180;59391;52.504;13.438;2022-08-19T08:19:54;100646.00;;;27.50
71564;BMP180;59391;52.504;13.438;2022-08-19T08:22:24;100638.00;;;27.40
71564;BMP180;59391;52.504;13.438;2022-08-19T08:25:17;100629.00;;;27.40
71564;BMP180;59391;52.504;13.438;2022-08-19T08:27:45;100647.00;;;27.40
71564;BMP180;59391;52.504;13.438;2022-08-19T08:30:21;100648.00;;;27.40
71564;BMP180;59391;52.504;13.438;2022-08-19T08:32:47;100639.00;;;27.50
71564;BMP180;59391;52.504;13.438;2022-08-19T08:35:17;100642.00;;;27.50
71564;BMP180;59391;52.504;13.438;2022-08-19T08:37:45;100647.00;;;27.70
71564;BMP180;59391;52.504;13.438;2022-08-19T08:40:25;100645.00;;;27.80
71564;BMP180;59391;52.504;13.438;2022-08-19T08:45:35;100651.00;;;28.10
71564;BMP180;59391;52.504;13.438;2022-08-19T08:48:14;100637.00;;;28.20
71564;BMP180;59391;52.504;13.438;2022-08-19T08:50:45;100631.00;;;28.30
71564;BMP180;59391;52.504;13.438;2022-08-19T08:53:15;100643.00;;;28.40
71564;BMP180;59391;52.504;13.438;2022-08-19T08:55:42;100655.00;;;28.50
71564;BMP180;59391;52.504;13.438;2022-08-19T08:58:28;100645.00;;;28.50
71564;BMP180;59391;52.504;13.438;2022-08-19T09:00:56;100640.00;;;28.50
71564;BMP180;59391;52.504;13.438;2022-08-19T09:03:28;100644.00;;;28.50
71564;BMP180;59391;52.504;13.438;2022-08-19T09:09:14;100658.00;;;28.50
71564;BMP180;59391;52.504;13.438;2022-08-19T09:12:05;100663.00;;;28.50
71564;BMP180;59391;52.504;13.438;2022-08-19T09:15:07;100649.00;;;28.50
71564;BMP180;59391;52.504;13.438;2022-08-19T09:17:36;100646.00;;;28.50
71564;BMP180;59391;52.504;13.438;2022-08-19T09:20:21;100637.00;;;28.60
71564;BMP180;59391;52.504;13.438;2022-08-19T09:22:47;100641.00;;;28.70
71564;BMP180;59391;52.504;13.438;2022-08-19T09:25:17;100632.00;;;28.80
71564;BMP180;59391;52.504;13.438;2022-08-19T09:27:45;100624.00;;;28.90
71564;BMP180;59391;52.504;13.438;2022-08-19T09:30:21;100625.00;;;29.10
71564;BMP180;59391;52.504;13.438;2022-08-19T09:32:47;100635.00;;;29.40
71564;BMP180;59391;52.504;13.438;2022-08-19T09:35:14;100640.00;;;29.60
71564;BMP180;59391;52.504;13.438;2022-08-19T09:37:41;100635.00;;;29.70
71564;BMP180;59391;52.504;13.438;2022-08-19T09:40:10;100640.00;;;29.70
71564;BMP180;59391;52.504;13.438;2022-08-19T09:42:36;100637.00;;;29.70
71564;BMP180;59391;52.504;13.438;2022-08-19T09:45:04;100637.00;;;29.70
71564;BMP180;59391;52.504;13.438;2022-08-19T09:47:30;100640.00;;;29.70
71564;BMP180;59391;52.504;13.438;2022-08-19T09:49:55;100625.00;;;29.80
71564;BMP180;59391;52.504;13.438;2022-08-19T09:52:21;100636.00;;;29.80
71564;BMP180;59391;52.504;13.438;2022-08-19T09:54:47;100634.00;;;29.70
71564;BMP180;59391;52.504;13.438;2022-08-19T09:57:12;100623.00;;;29.70
71564;BMP180;59391;52.504;13.438;2022-08-19T09:59:39;100623.00;;;29.70
71564;BMP180;59391;52.504;13.438;2022-08-19T10:02:05;100638.00;;;29.70
71564;BMP180;59391;52.504;13.438;2022-08-19T10:04:31;100631.00;;;29.60
71564;BMP180;59391;52.504;13.438;2022-08-19T10:07:15;100628.00;;;29.60
71564;BMP180;59391;52.504;13.438;2022-08-19T10:09:41;100628.00;;;29.60
71564;BMP180;59391;52.504;13.438;2022-08-19T10:12:08;100626.00;;;29.60
71564;BMP180;59391;52.504;13.438;2022-08-19T10:14:34;100653.00;;;29.50
71564;BMP180;59391;52.504;13.438;2022-08-19T10:17:02;100648.00;;;29.50
71564;BMP180;59391;52.504;13.438;2022-08-19T10:19:28;100642.00;;;29.40
71564;BMP180;59391;52.504;13.438;2022-08-19T10:21:57;100649.00;;;29.30
71564;BMP180;59391;52.504;13.438;2022-08-19T10:24:23;100642.00;;;29.30
71564;BMP180;59391;52.504;13.438;2022-08-19T10:26:51;100643.00;;;29.20
71564;BMP180;59391;52.504;13.438;2022-08-19T10:29:17;100640.00;;;29.10
71564;BMP180;59391;52.504;13.438;2022-08-19T10:31:42;100630.00;;;29.00
71564;BMP180;59391;52.504;13.438;2022-08-19T10:34:08;100637.00;;;28.90
71564;BMP180;59391;52.504;13.438;2022-08-19T10:36:36;100626.00;;;28.80
71564;BMP180;59391;52.504;13.438;2022-08-19T10:39:09;100635.00;;;28.70
71564;BMP180;59391;52.504;13.438;2022-08-19T10:41:38;100631.00;;;28.70
71564;BMP180;59391;52.504;13.438;2022-08-19T10:44:08;100632.00;;;28.60
71564;BMP180;59391;52.504;13.438;2022-08-19T10:46:39;100621.00;;;28.60
71564;BMP180;59391;52.504;13.438;2022-08-19T10:49:08;100629.00;;;28.50
71564;BMP180;59391;52.504;13.438;2022-08-19T10:51:34;100627.00;;;28.50
71564;BMP180;59391;52.504;13.438;2022-08-19T10:54:19;100632.00;;;28.40
71564;BMP180;59391;52.504;13.438;2022-08-19T10:56:45;100635.00;;;28.40
71564;BMP180;59391;52.504;13.438;2022-08-19T10:59:28;100634.00;;;28.40
71564;BMP180;59391;52.504;13.438;2022-08-19T11:02:00;100639.00;;;28.30
71564;BMP180;59391;52.504;13.438;2022-08-19T11:04:28;100623.00;;;28.30
71564;BMP180;59391;52.504;13.438;2022-08-19T11:06:54;100633.00;;;28.30
71564;BMP180;59391;52.504;13.438;2022-08-19T11:09:23;100627.00;;;28.40
71564;BMP180;59391;52.504;13.438;2022-08-19T11:11:55;100631.00;;;28.40
71564;BMP180;59391;52.504;13.438;2022-08-19T11:14:44;100617.00;;;28.40
71564;BMP180;59391;52.504;13.438;2022-08-19T11:17:15;100636.00;;;28.40
71564;BMP180;59391;52.504;13.438;2022-08-19T11:19:41;100641.00;;;28.40
71564;BMP180;59391;52.504;13.438;2022-08-19T11:22:09;100639.00;;;28.40
71564;BMP180;59391;52.504;13.438;2022-08-19T11:24:35;100645.00;;;28.40
71564;BMP180;59391;52.504;13.438;2022-08-19T11:27:07;100653.00;;;28.40
71564;BMP180;59391;52.504;13.438;2022-08-19T11:29:37;100647.00;;;28.30
71564;BMP180;59391;52.504;13.438;2022-08-19T11:32:09;100650.00;;;28.30
71564;BMP180;59391;52.504;13.438;2022-08-19T11:34:36;100655.00;;;28.30
71564;BMP180;59391;52.504;13.438;2022-08-19T11:37:03;100616.00;;;28.30
71564;BMP180;59391;52.504;13.438;2022-08-19T11:39:31;100651.00;;;28.40
71564;BMP180;59391;52.504;13.438;2022-08-19T11:41:59;100655.00;;;28.40
71564;BMP180;59391;52.504;13.438;2022-08-19T11:44:25;100640.00;;;28.40
71564;BMP180;59391;52.504;13.438;2022-08-19T11:50:17;100669.00;;;28.40
71564;BMP180;59391;52.504;13.438;2022-08-19T11:52:45;100655.00;;;28.20
71564;BMP180;59391;52.504;13.438;2022-08-19T11:55:14;100673.00;;;28.30
71564;BMP180;59391;52.504;13.438;2022-08-19T11:57:42;100631.00;;;28.30
71564;BMP180;59391;52.504;13.438;2022-08-19T12:00:09;100623.00;;;28.30
71564;BMP180;59391;52.504;13.438;2022-08-19T12:02:37;100682.00;;;28.30
71564;BMP180;59391;52.504;13.438;2022-08-19T12:05:04;100667.00;;;28.30
71564;BMP180;59391;52.504;13.438;2022-08-19T12:07:29;100667.00;;;28.30
71564;BMP180;59391;52.504;13.438;2022-08-19T12:10:00;100666.00;;;28.30
71564;BMP180;59391;52.504;13.438;2022-08-19T12:12:27;100673.00;;;28.30
71564;BMP180;59391;52.504;13.438;2022-08-19T12:14:55;100678.00;;;28.30
71564;BMP180;59391;52.504;13.438;2022-08-19T12:17:26;100671.00;;;28.40
71564;BMP180;59391;52.504;13.438;2022-08-19T12:19:53;100680.00;;;28.40
71564;BMP180;59391;52.504;13.438;2022-08-19T12:22:18;100677.00;;;28.50
71564;BMP180;59391;52.504;13.438;2022-08-19T12:24:45;100663.00;;;28.60
71564;BMP180;59391;52.504;13.438;2022-08-19T12:27:10;100680.00;;;28.70
71564;BMP180;59391;52.504;13.438;2022-08-19T12:29:36;100675.00;;;28.70
71564;BMP180;59391;52.504;13.438;2022-08-19T12:32:02;100679.00;;;28.70
71564;BMP180;59391;52.504;13.438;2022-08-19T12:34:32;100675.00;;;28.80
71564;BMP180;59391;52.504;13.438;2022-08-19T12:37:01;100678.00;;;28.80
71564;BMP180;59391;52.504;13.438;2022-08-19T12:39:28;100669.00;;;28.90
71564;BMP180;59391;52.504;13.438;2022-08-19T12:41:54;100678.00;;;29.00
71564;BMP180;59391;52.504;13.438;2022-08-19T12:44:19;100699.00;;;29.00
71564;BMP180;59391;52.504;13.438;2022-08-19T12:46:46;100691.00;;;29.10
71564;BMP180;59391;52.504;13.438;2022-08-19T12:49:12;100687.00;;;29.20
71564;BMP180;59391;52.504;13.438;2022-08-19T12:51:37;100677.00;;;29.20
71564;BMP180;59391;52.504;13.438;2022-08-19T12:54:03;100668.00;;;29.30
71564;BMP180;59391;52.504;13.438;2022-08-19T12:56:30;100678.00;;;29.40
71564;BMP180;59391;52.504;13.438;2022-08-19T12:58:56;100655.00;;;29.40
71564;BMP180;59391;52.504;13.438;2022-08-19T13:01:22;100671.00;;;29.40
71564;BMP180;59391;52.504;13.438;2022-08-19T13:03:47;100673.00;;;29.40
71564;BMP180;59391;52.504;13.438;2022-08-19T13:06:13;100667.00;;;29.40
71564;BMP180;59391;52.504;13.438;2022-08-19T13:08:40;100682.00;;;29.40
71564;BMP180;59391;52.504;13.438;2022-08-19T13:11:13;100693.00;;;29.40
71564;BMP180;59391;52.504;13.438;2022-08-19T13:13:42;100687.00;;;29.40
71564;BMP180;59391;52.504;13.438;2022-08-19T13:16:10;100681.00;;;29.40
71564;BMP180;59391;52.504;13.438;2022-08-19T13:18:37;100691.00;;;29.40
71564;BMP180;59391;52.504;13.438;2022-08-19T13:21:05;100696.00;;;29.40
71564;BMP180;59391;52.504;13.438;2022-08-19T13:23:33;100679.00;;;29.50
71564;BMP180;59391;52.504;13.438;2022-08-19T13:26:02;100689.00;;;29.60
71564;BMP180;59391;52.504;13.438;2022-08-19T13:28:30;100678.00;;;29.70
71564;BMP180;59391;52.504;13.438;2022-08-19T13:31:19;100682.00;;;29.70
71564;BMP180;59391;52.504;13.438;2022-08-19T13:34:04;100699.00;;;29.70
71564;BMP180;59391;52.504;13.438;2022-08-19T13:36:34;100693.00;;;29.70
71564;BMP180;59391;52.504;13.438;2022-08-19T13:39:00;100682.00;;;29.70
71564;BMP180;59391;52.504;13.438;2022-08-19T13:41:27;100659.00;;;29.70
71564;BMP180;59391;52.504;13.438;2022-08-19T13:43:53;100687.00;;;29.70
71564;BMP180;59391;52.504;13.438;2022-08-19T13:46:20;100678.00;;;29.70
71564;BMP180;59391;52.504;13.438;2022-08-19T13:48:47;100676.00;;;29.80
71564;BMP180;59391;52.504;13.438;2022-08-19T13:51:15;100663.00;;;29.70
71564;BMP180;59391;52.504;13.438;2022-08-19T13:53:43;100680.00;;;29.60
71564;BMP180;59391;52.504;13.438;2022-08-19T13:56:15;100684.00;;;29.50
71564;BMP180;59391;52.504;13.438;2022-08-19T13:58:42;100676.00;;;29.40
71564;BMP180;59391;52.504;13.438;2022-08-19T14:01:09;100679.00;;;29.30
71564;BMP180;59391;52.504;13.438;2022-08-19T14:03:35;100678.00;;;29.20
71564;BMP180;59391;52.504;13.438;2022-08-19T14:06:01;100672.00;;;29.10
71564;BMP180;59391;52.504;13.438;2022-08-19T14:08:28;100676.00;;;29.10
71564;BMP180;59391;52.504;13.438;2022-08-19T14:10:55;100675.00;;;29.10
71564;BMP180;59391;52.504;13.438;2022-08-19T14:13:24;100669.00;;;29.10
71564;BMP180;59391;52.504;13.438;2022-08-19T14:15:51;100674.00;;;29.10
71564;BMP180;59391;52.504;13.438;2022-08-19T14:18:18;100657.00;;;29.10
71564;BMP180;59391;52.504;13.438;2022-08-19T14:20:44;100664.00;;;29.10
71564;BMP180;59391;52.504;13.438;2022-08-19T14:23:11;100679.00;;;29.00
71564;BMP180;59391;52.504;13.438;2022-08-19T14:25:38;100681.00;;;29.00
71564;BMP180;59391;52.504;13.438;2022-08-19T14:28:12;100663.00;;;28.90
71564;BMP180;59391;52.504;13.438;2022-08-19T14:31:09;100703.00;;;28.90
71564;BMP180;59391;52.504;13.438;2022-08-19T14:34:20;100701.00;;;28.90
71564;BMP180;59391;52.504;13.438;2022-08-19T14:37:03;100650.00;;;28.90